[Jeden Montag | 1730z - 2030z | EDDN] Nürnberg Montag

Zu Eventkalender hinzugefügt: 543 Daten

Jan Dylla

1378091
RG München - Event
NurnbergMonday_winter.jpg



Guten Morgen zusammen! Es startet eine neue Woche und heute Abend ein neuer Nürnberg Montag! Ab 1830z ist der Albrecht Dürer Flughafen wieder voll besetzt und freut sich, wie immer, auf euren Besuch.
Wie jede Woche bietet sich ein kleiner Shuttleflug nach, oder von Düsseldorf an.

Wetter ist zwar eher frisch aber könnte VFR freundlicher kaum sein. Ihr könnt also wie gewohnt um Nürnberg Kreisen, oder einen der vielen kleineren Plätze in der Umgebung einen Besuch abstatten.
Ansonsten bieten wir natürlich auch euren Dickblechfliegern das optimale Gate zum Ankommen oder Abfliegen.

TAF: EDDN 080500Z 0806/0906 VRB02KT CAVOK BECMG 0810/0812 34005KT BECMG 0816/0818 VRB02KT

Übersteht den Tag gut und spart euch genügend Energie für heute Abend auf!
Wir freuen uns auf euch!
 
Falls jetzt jemand mitkommen möchte von Porto nach Nürnberg - die Jungs sind grad schon nett besetzt:
LPPR-EDDN: BELDU DCT ADORO UL155 ZMR UN976 DGO UT429 TOPTU UN871 DITON T163 ZUE T125 ROMIR N851 VEDOK DCT LOKTA DCT TEDGO N869 DKB DKB5T
 

Jan Dylla

1378091
RG München - Event
NurnbergMonday_winter.jpg


Einen schönen Montag und guten Start euch allen in die neue Woche. Nicht mehr all zu lange und ihr könnt den ersten Arbeitstag schon wieder abhaken und euch voll und ganz auf unseren Nürnberg Montag freuen! Ab 1830z bis 2130z erwartet euch der Platz mal wieder in kompletter Besetzung und ist bereit für alles, was ihr auch nur vorhaben könnt! Ob Dünnblech, Helicopter, gewöhnlicher PAX-Transport, oder doch ein paar Cargo-Ops - absolut alles ist bei uns möglich.
Wetter mäßig ist das heute zugegebenermaßen nicht so der bringer:

TAF: EDDN 150939Z 1509/1606 24007KT 9999 BKN013 PROB30 TEMPO 1509/1511 BKN008 BECMG 1510/1512 28012KT SCT013 BKN020 PROB40 TEMPO 1514/1601 4000 SHGS SCT010 BKN020CB

Aber es könnte auch bei weitem schlimmer sein, dazu gibt es ja noch immer den netten CAVOK Schieber!

Wie eigentlich jede Woche gibt es auch wieder die gewohnte Rennstrecke von oder nach Düsseldorf:

EDDL-EDDN | F190 - F230 | 208 nm
KUMIK L603 TESGA Z719 ETOLU Z723 KOMIB T193 ERTES

EDDN-EDDL | F180 - F240 | 225 nm
SULUS L604 MASEK Z52 ARPEG Z850 ADEMI T854 DOMUX


Wir freuen uns darauf, euch heute Abend auf der Frequenz begrüßen zu dürfen!
 
Dem kann ich mich nur anschließen. Vielen Dank an alle Controller in und um Nürnberg. Besonders an Christian auf Director für das abgesprochene Logout, als ich die Kontrolle über mein Flugzeug verloren hatte und das perfekte anschließende Wiedereinfädeln in die Perlenschnur. Klasse auch von Karsten auf Ground, dass er mir trotz viel Verkehr Progressive Taxi geboten hat, als ich in der Default Szenerie den Überblick verloren hatte. Da fühlt man sich wirklich gut aufgehoben.
 

Samy Greve

874505
ATD - Prüfer
RG München - Event
RG München - NAV
RG München - Mentor
NurnbergMonday_winter.jpg


Willkommen zur nächsten Woche im Jahr 2021 - das bedeutet natürlich auch zu Beginn, dass wir euch herzlich zum Nürnberg Montag ab 1830Z einladen! Für mindestens 3 Stunden ist der Flughafen Nürnberg wieder besetzt.

Auch hier bietet sich die Route nach Düsseldorf an. Neben dem Onlineday findet heute Abend auch ein Center CPT dort statt.

EDDL-EDDN | F190 - F230 | 208 nm
KUMIK L603 TESGA Z719 ETOLU Z723 KOMIB T193 ERTES

EDDN-EDDL | F180 - F240 | 225 nm
SULUS L604 MASEK Z52 ARPEG Z850 ADEMI T854 DOMUX

Wettermäßig wird es aber ziemlich unspektakulär :

EDDN 220500Z 2206/2306 30005KT 9999 FEW020 BKN040

Wie dem auch sei, bis heute Abend! :)
 

Jan Dylla

1378091
RG München - Event
NurnbergMonday_sommer.jpg


Schon wieder Montag... für die meisten startet dieser Tag eher mit dem nüchternen Ausblick auf eine neu beginnende Arbeitswoche, bei uns aber mit der Vorfreude auf den Abend, denn: der NüMo steht wieder vor der Tür! Ab 1730z geben sich die Nürnberger Lotsen wieder für mindestens 3 Stunden die Ehre, euch auf dem Albrecht Dürer Flughafen zu begrüßen! Als Schmankerl oben drauf, ist heute auch noch der monatliche Budapest - Nürnberg City Link. Ob ihr dabei mit einem Light, Medium oder Heavy rein schneit, ist völlig egal - Hauptsache ihr sorgt für Traffic :)
Wetter könnte dafür eigentlich auch kaum besser sein:
TAF: EDDN 290500Z 2906/3006 10004KT CAVOK BECMG 2907/2909 25005KT TEMPO 2911/2914 28010KT BECMG 2915/2917 13003KT

Wie eigentlich jede Woche bietet sich zusätzlich auch direkt wieder die gute, alte Rennstrecke zwischen Düsseldorf und Nürnberg an.
Für beide Events findet ihr unten Routenvorschläge!

Bis heute Abend :)


EDDN - LHBP | FL180 - 380
EDDN-LHBP RODIS L604 LAMSI DCT ABLOM DCT ANEXA
LHBP - EDDN | FL190 - 390
GILEP DCT ZOLKU DCT ARSIN DCT SUBEN T161 AKINI


EDDN - EDDL | FL180 - FL240
SULUS L604 MASEK Z52 ARPEG Z850 ADEMI T854 DOMUX
EDDL - EDDN | FL190 - FL230
KUMIK L603 TESGA Z719 ETOLU Z723 KOMIB T193 ERTES
 

Jan Dylla

1378091
RG München - Event
NurnbergMonday_sommer.jpg


Auch an Ostern ändert sich nichts am Grundsatz: jeder Montag ist ein Nürnberg Montag! Und ein NüMo an dem auch noch frei ist, könnte doch geeigneter kaum sein:
So wartet auch heute Abend wieder ein voll besetzter Albrecht Dürer Flughafen nur auf euren Besuch! Überführung von riesigen Osternestern mit einer Cargo Maschine, Weitertransport von Osterhasen nach ihrem Einsatz in unseren Gärten mit eurem lieblings-Airliner, oder Suche von noch nicht gefundenen Eiern aus der Luft mit eurem Dünnblechflieger - alles ist möglich!
Wobei unter Umständen letzteres eine leichte Modifikation des Wetters erfordern könnte, das ist nämlich so richtig April-like:
TAF: EDDN 050500Z 0506/0606 13006KT CAVOK BECMG 0506/0508 23015G25KT BECMG 0508/0510 25020G35KT TEMPO 0513/0515 33025G40KT RA BKN012 OVC020 BECMG 0514/0516 33015G25KT PROB30 TEMPO 0514/0518 4000 SNRA BKN009 OVC012 BECMG 0517/0519 30008KT TEMPO 0601/0606 30015KT 2000 SHSN BKN008 BKN020TCU PROB30 TEMPO 0601/0606 TSSN

Wie eigentlich jede Woche bietet sich zusätzlich auch direkt wieder die gute, alte Rennstrecke zwischen Düsseldorf und Nürnberg an.
Für beide Events findet ihr unten Routenvorschläge!

Wir freuen uns auf heute Abend und wünschen euch bis dahin noch mal frohe Ostern!!

EDDN - EDDL | FL180 - FL240
SULUS L604 MASEK Z52 ARPEG Z850 ADEMI T854 DOMUX
EDDL - EDDN | FL190 - FL230
KUMIK L603 TESGA Z719 ETOLU Z723 KOMIB T193 ERTES

Charts:

 

Jan Dylla

1378091
RG München - Event
NurnbergMonday_sommer.jpg


Wöchentlich grüßt der Nürnberg Montag - so ist es auch heute! Von 1730 bis 2030z ist der Albrecht Dürer Flughafen wieder voll besetzt und bietet euch gewohnten Service für sämtliche Vorhaben in und um Nürnberg. Das Wetter schaut aktuell mehr als nur Aprilmäßig aus, aber bis heute Abend soll sich der Schneeregen wohl schon wieder verzogen haben, die niedrig hängende Bewölkung könnte dennoch dem einen oder anderen Dünnblechpiloten in die Suppe spucken.
TAF: EDDN 120500Z 1206/1306 32009KT 9000 BKN006 PROB30 BECMG 1216/1218 26003KT

Dafür bietet sich aber wieder der Shuttle mit den Kollegen aus Düsseldorf:
EDDN - EDDL | FL180 - FL240
SULUS L604 MASEK Z52 ARPEG Z850 ADEMI T854 DOMUX
EDDL - EDDN | FL190 - FL230
KUMIK L603 TESGA Z719 ETOLU Z723 KOMIB T193 ERTES

Wer auf etwas längere Strecken steht, auch die Kollegen aus Skandinavien sind heute von 18 bis 20z vertreten:
EDDN-EKCH | FL330 - FL410
ERETO DCT LONLI M726 LASTO DCT EMBOX DCT NOBRI M726 ROSOK Q296 MONAK
EKCH - EDDN | FL100 - FL300
SIMEG M736 SALLO M44 KOGIM M725 OBANI Z36 PIKIB Z715 KULOK Q244 NIBIL

Wir freuen uns euch heute Abend auf der Frequenz begrüßen zu dürfen!

Charts:

 

Pascal Klamm

1451860
PTD - Trainer
Auch heute ist es wieder soweit und der Albrecht Dürer Airport öffnet für euch im Rahmen des Nürnberg-Montags seine Pforten. Also plant eure Flüge, putzt die Cockpitscheiben, und schon kann es losgehen! Die Controller freuen sich schon auf euch!

METAR:
EDDN 191620Z 29008KT 9999 FEW029 10/06 Q1017 NOSIG
TAF:
EDDN 191100Z 1912/2012 30005KT 9999 SCT015 BKN045 TEMPO 1912/1919 4000 SHRA SCT012 BKN015CB BECMG 1917/1919 10002KT PROB40 TEMPO 1921/1924 4000 BR BECMG 2000/2002 4000 BR BKN012 TEMPO 2002/2008 1200 BR BKN002 BECMG 2007/2009 8000 SCT012 BKN030 TEMPO 2010/2012 30005KT SHRA SCT012 BKN025CB
 

Samy Greve

874505
ATD - Prüfer
RG München - Event
RG München - NAV
RG München - Mentor
NurnbergMonday_sommer.jpg


Zum Wochenstart laden wir euch wieder herzlich zum Nürnberg Montag ein! Von 1730Z bis 2030Z bieten wir am Flughafen Nürnberg wieder eine komplette Besetzung euch an. Zusätzlich haben wir unseren Monatsshuttle mit Budapest, wo euch komplette ATC Abdeckung von Ground bis Ground erwartet.

Zu der Rennstrecke nach Budapest bietet sich, wie jede Woche, natürlich auch die Rennstrecke nach Düsseldorf, sowie nach Kopenhagen zum Onlineday an.

Wir freuen uns in jedem Fall auf euren Besuch!

LHBP -EDDN GILEP DCT ZOLKU DCT ARSIN DCT SUBEN T161 AKINI
EDDN -LHBP RODIS L604 LAMSI DCT MAREG DCT ANEXA

EDDN - EDDL SULUS L604 MASEK Z52 ARPEG Z850 ADEMI T854 DOMUX
EDDL - EDDN KUMIK L603 TESGA Z719 ETOLU Z723 KOMIB T193 ERTES

EDDN -EKCH ERETO DCT LONLI M726 LASTO DCT EMBOX DCT NOBRI M726 ROSOK Q296 MONAK
EKCH - EDDN SIMEG M736 SALLO M44 KOGIM M725 OBANI Z36 PIKIB Z715 KULOK Q244 NIBIL
 
Zuletzt bearbeitet:

Maik Spaeth

1452697
RG München - Event
NurnbergMonday_sommer.jpg


Zum ersten Montag im Mai laden wir wieder herzlich zu unserem Nürnberg Montag ein! Von 1730z bis 2030z ist der Nürnberger Flughafen wieder voll besetzt.

Das Wetter sieht auch sehr gut aus:
TAF: EDDN 030500Z 0306/0406 09005KT 9999 FEW040

Nutzt die Chance und kommt vorbei - ob ihr von Nürnberg startet, oder den EDDN Flughafen zu eurem Ziel setzt. Unsere Controller freuen sich auf euch!

Vielleicht ein Shuttle mit den Kollegen aus Düsseldorf?
EDDN - EDDL | FL180 - FL240
SULUS L604 MASEK Z52 ARPEG Z850 ADEMI T854 DOMUX
EDDL - EDDN | FL190 - FL230
KUMIK L603 TESGA Z719 ETOLU Z723 KOMIB T193 ERTES

Oder doch nach Skandinavien?
EDDN-EKCH | FL330 - FL410
ERETO DCT LONLI M726 LASTO DCT EMBOX DCT NOBRI M726 ROSOK Q296 MONAK
EKCH - EDDN | FL100 - FL300
SIMEG M736 SALLO M44 KOGIM M725 OBANI Z36 PIKIB Z715 KULOK Q244 NIBIL

Wir freuen uns, euch heute Abend auf der Frequenz begrüßen zu dürfen!

https://vatsim-germany.org/pilots/aerodromes/EDDN
 

Maik Spaeth

1452697
RG München - Event
NurnbergMonday_sommer.jpg


Neue Woche neues Glück? - Nach getaner Arbeit erwarten euch heute Abend wieder unsere Controller in Nürnberg zum nächsten "Nürnberg Montag"!

Von 1730z - 2030z ist der Albrecht Dürer Flughafen wieder voll besetzt.
In gewohnter top Qualität bringen euch die Kollegen in die Luft oder zu eurem Ziel.

Das Wetter wird gegen Ende sehr spannend werden:
EDDN: 1016/1018 18015G30KT 4000 TSRA BKN030CB

Wie wäre es mit einem Flug nach Düsseldorf?
EDDN - EDDL | FL180 - FL240
SULUS L604 MASEK Z52 ARPEG Z850 ADEMI T854 DOMUX
EDDL - EDDN | FL190 - FL230
KUMIK L603 TESGA Z719 ETOLU Z723 KOMIB T193 ERTES

oder eventuell Skandinavien?
EDDN-EKCH | FL330 - FL410
ERETO DCT LONLI M726 LASTO DCT EMBOX DCT NOBRI M726 ROSOK Q296 MONAK
EKCH - EDDN | FL100 - FL300
SIMEG M736 SALLO M44 KOGIM M725 OBANI Z36 PIKIB Z715 KULOK Q244 NIBIL

Egal für was ihr euch entscheidet - hauptsache ihr setzt EDDN heute als Abflug oder euer Ziel ;)

Wir freuen uns auf euch!
 
Kleine Info für alle die nicht nur heute EDDN-EDDM fliegen wollen - das gewünschte Routing ist weiterhin wie folgt, auch wenn es real grad nicht validierbar ist (ED2023 wird mit AIRAC 2106 wieder die Ausnahme für genau das Citypair zurück bekommen):

EDDN-EDDM: AKANU L603 RENLO T466 ROKIL
 

Maik Spaeth

1452697
RG München - Event
NurnbergMonday_sommer.jpg
"It`s just another manic monday" - Somit ist unser Flughafen EDDN heute Abend von 1730z - 2030z wieder voll besetzt.
Egal ob ihr heute mit einem Light, Medium oder Heavy Nürnberg unsicher macht - kommt vorbei und sorgt für ordentlich Traffic und bringt unsere Controller zum schwitzen! ;)

Auch das Wetter könnte dazu beitragen:
TAF: EDDN 170500Z 1706/1806 24009KT 9999 SCT020 BKN030 BECMG 1708/1711 26015G25KT PROB40 TEMPO 1710/1713 SHRA BKN025CB PROB30 TEMPO 1713/1717 27020G30KT TSRA SCT015 BKN020CB BECMG 1716/1718 25010KT PROB30

Wie immer bietet sich die Rennstrecke nach Düsseldorf an:
EDDN - EDDL | FL180 - FL240
SULUS L604 MASEK Z52 ARPEG Z850 ADEMI T854 DOMUX
EDDL - EDDN | FL190 - FL230
KUMIK L603 TESGA Z719 ETOLU Z723 KOMIB T193 ERTES

Egal wohin ihr fliegt oder von wo ihr kommt - hauptsache ihr habt einmal EDDN in eurem Flugplan.
Also kommt vorbei und freut euch genau so wie wir auf heute Abend.
 
Oben